createdAt,value
2023-04-10T00:00:14.183Z,7.7923
2023-04-10T00:01:17.151Z,7.7615
2023-04-10T00:02:20.189Z,7.6308
2023-04-10T00:03:23.088Z,8.1462
2023-04-10T00:04:26.076Z,7.1615
2023-04-10T00:05:29.022Z,7.4846
2023-04-10T00:06:31.899Z,8.0615
2023-04-10T00:07:34.833Z,7.6692
2023-04-10T00:08:37.801Z,7.2308
2023-04-10T00:09:40.736Z,7.2769
2023-04-10T00:10:43.685Z,7.7231
2023-04-10T00:11:46.627Z,7.7154
2023-04-10T00:12:49.612Z,7.6000
2023-04-10T00:13:52.917Z,7.1769
2023-04-10T00:14:55.492Z,7.0000
2023-04-10T00:15:58.432Z,7.4462
2023-04-10T00:17:01.584Z,6.9692
2023-04-10T00:18:04.412Z,8.2692
2023-04-10T00:19:07.322Z,7.2615
2023-04-10T00:20:10.234Z,7.4462
2023-04-10T00:21:13.210Z,7.2462
2023-04-10T00:22:16.143Z,7.8154
2023-04-10T00:23:19.114Z,7.4769
2023-04-10T00:24:22.087Z,8.4462
2023-04-10T00:25:24.987Z,8.3462
2023-04-10T00:26:28.037Z,8.0231
2023-04-10T00:27:30.895Z,7.7231
2023-04-10T00:28:33.864Z,7.9385
2023-04-10T00:29:36.810Z,7.7615
2023-04-10T00:30:39.748Z,6.8923
2023-04-10T00:31:42.757Z,6.9692
2023-04-10T00:32:45.773Z,7.2000
2023-04-10T00:33:48.621Z,7.2923
2023-04-10T00:34:51.563Z,7.6308
2023-04-10T00:35:54.555Z,7.1692
2023-04-10T00:36:57.502Z,7.6000
2023-04-10T00:38:00.425Z,7.4462
2023-04-10T00:39:03.386Z,6.6615
2023-04-10T00:40:06.326Z,6.7538
2023-04-10T00:41:09.269Z,7.4154
2023-04-10T00:42:12.259Z,8.0231
2023-04-10T00:43:15.220Z,7.5231
2023-04-10T00:44:18.129Z,7.5077
2023-04-10T00:45:21.078Z,7.7538
2023-04-10T00:46:24.072Z,7.0923
2023-04-10T00:47:27.011Z,7.6462
2023-04-10T00:48:29.957Z,7.6846
2023-04-10T00:49:32.884Z,6.9462
2023-04-10T00:50:35.847Z,7.5538
2023-04-10T00:51:38.804Z,7.3769
2023-04-10T00:52:41.874Z,7.2385
2023-04-10T00:53:44.721Z,7.8462
2023-04-10T00:54:47.666Z,7.6769
2023-04-10T00:55:50.622Z,7.2462
2023-04-10T00:56:53.819Z,8.0308
2023-04-10T00:57:56.630Z,7.6385
2023-04-10T00:58:59.498Z,7.4154
2023-04-10T01:00:02.429Z,7.4154
2023-04-10T01:01:05.506Z,7.9538
2023-04-10T01:02:08.433Z,7.5154
2023-04-10T01:03:11.435Z,7.1077
2023-04-10T01:04:14.368Z,7.5538
2023-04-10T01:05:17.204Z,7.4385
2023-04-10T01:06:20.163Z,6.8308
2023-04-10T01:07:23.178Z,7.2462
2023-04-10T01:08:26.071Z,7.5769
2023-04-10T01:09:29.062Z,7.4538
2023-04-10T01:10:31.996Z,7.5462
2023-04-10T01:11:34.962Z,7.7923
2023-04-10T01:12:37.887Z,7.5692
2023-04-10T01:13:40.854Z,8.5769
2023-04-10T01:14:43.824Z,7.9923
2023-04-10T01:15:46.761Z,7.2846
2023-04-10T01:16:49.865Z,6.9000
2023-04-10T01:17:52.716Z,7.2769
2023-04-10T01:18:55.642Z,7.3385
2023-04-10T01:19:58.637Z,7.5385
2023-04-10T01:21:01.537Z,7.5154
2023-04-10T01:22:04.510Z,7.3462
2023-04-10T01:23:07.459Z,7.7154
2023-04-10T01:24:10.455Z,8.2077
2023-04-10T01:25:13.408Z,7.2769
2023-04-10T01:26:16.349Z,7.4385
2023-04-10T01:27:19.392Z,8.5308
2023-04-10T01:28:22.250Z,8.3154
2023-04-10T01:29:25.230Z,8.1538
2023-04-10T01:30:28.148Z,8.3385
2023-04-10T01:31:31.093Z,7.9000
2023-04-10T01:32:34.084Z,7.8077
2023-04-10T01:33:36.998Z,7.7231
2023-04-10T01:34:40.156Z,7.6154
2023-04-10T01:35:42.929Z,7.6615
2023-04-10T01:36:45.895Z,7.9846
2023-04-10T01:37:48.831Z,7.9385
2023-04-10T01:38:51.858Z,7.8846
2023-04-10T01:39:54.738Z,8.6154
2023-04-10T01:40:57.701Z,8.8154
2023-04-10T01:42:00.670Z,8.3538
2023-04-10T01:43:03.609Z,7.6154
2023-04-10T01:44:06.563Z,7.8462
2023-04-10T01:45:09.515Z,7.8923
2023-04-10T01:46:12.483Z,7.4154
2023-04-10T01:47:15.562Z,7.2769
2023-04-10T01:48:18.375Z,7.7692
2023-04-10T01:49:21.320Z,7.7769
2023-04-10T01:50:24.290Z,8.3923
2023-04-10T01:51:27.220Z,7.9308
2023-04-10T01:52:30.224Z,7.7154
2023-04-10T01:53:33.131Z,7.6385
2023-04-10T01:54:36.076Z,8.6769
2023-04-10T01:55:39.039Z,8.0231
2023-04-10T01:56:41.987Z,7.8462
2023-04-10T01:57:44.990Z,7.9846
2023-04-10T01:58:47.902Z,7.8615
2023-04-10T01:59:50.876Z,7.5000
2023-04-10T02:00:53.902Z,7.2231
2023-04-10T02:01:56.810Z,7.1846
2023-04-10T02:02:59.897Z,8.1692
2023-04-10T02:04:02.762Z,7.3308
2023-04-10T02:05:05.755Z,7.7308
2023-04-10T02:06:08.582Z,7.1308
2023-04-10T02:07:11.571Z,7.2462
2023-04-10T02:08:14.516Z,7.4231
2023-04-10T02:09:17.436Z,7.5000
2023-04-10T02:10:20.393Z,7.5385
2023-04-10T02:11:23.364Z,7.2231
2023-04-10T02:12:26.304Z,8.8231
2023-04-10T02:13:29.255Z,7.5077
2023-04-10T02:14:32.199Z,7.7154
2023-04-10T02:15:35.260Z,7.0769
2023-04-10T02:16:38.208Z,7.1692
2023-04-10T02:17:41.072Z,7.9077
2023-04-10T02:18:44.000Z,7.3154
2023-04-10T02:19:46.967Z,8.6000
2023-04-10T02:20:49.966Z,9.1615
2023-04-10T02:21:53.002Z,8.6538
2023-04-10T02:22:55.813Z,8.2462
2023-04-10T02:23:58.795Z,8.4462
2023-04-10T02:25:01.744Z,8.1000
2023-04-10T02:26:04.680Z,8.6923
2023-04-10T02:27:07.637Z,8.6308
2023-04-10T02:28:10.642Z,8.4846
2023-04-10T02:29:13.532Z,7.9538
2023-04-10T02:30:16.567Z,7.9769
2023-04-10T02:31:19.448Z,8.6231
2023-04-10T02:32:22.413Z,8.3154
2023-04-10T02:33:25.344Z,9.4846
2023-04-10T02:34:28.291Z,8.2923
2023-04-10T02:35:31.337Z,8.0308
2023-04-10T02:36:34.229Z,8.0154
2023-04-10T02:37:37.233Z,7.5923
2023-04-10T02:38:40.102Z,8.1538
2023-04-10T02:39:43.063Z,7.5000
2023-04-10T02:40:46.016Z,8.4077
2023-04-10T02:41:48.997Z,6.7538
2023-04-10T02:42:51.977Z,7.6077
2023-04-10T02:43:54.926Z,8.0923
2023-04-10T02:44:57.822Z,8.0077
2023-04-10T02:46:00.785Z,7.0769
2023-04-10T02:47:03.750Z,7.5000
2023-04-10T02:48:06.872Z,8.1538
2023-04-10T02:49:09.693Z,7.8462
2023-04-10T02:50:12.599Z,7.9154
2023-04-10T02:51:15.569Z,8.2615
2023-04-10T02:52:18.488Z,7.8462
2023-04-10T02:53:21.451Z,8.6077
2023-04-10T02:54:24.525Z,7.9538
2023-04-10T02:55:27.391Z,7.7615
2023-04-10T02:56:30.304Z,8.3000
2023-04-10T02:57:33.259Z,7.8846
2023-04-10T02:58:36.212Z,7.4462
2023-04-10T02:59:39.212Z,7.8846
2023-04-10T03:00:42.138Z,7.8846
2023-04-10T03:01:45.255Z,8.1769
2023-04-10T03:02:48.220Z,8.0308
2023-04-10T03:03:51.067Z,8.8769
2023-04-10T03:04:54.040Z,8.6308
2023-04-10T03:05:56.920Z,7.9154
2023-04-10T03:06:59.833Z,8.4308
2023-04-10T03:08:02.806Z,7.7692
2023-04-10T03:09:05.734Z,7.8462
2023-04-10T03:10:08.710Z,8.5769
2023-04-10T03:11:11.645Z,8.4077
2023-04-10T03:12:14.622Z,7.7769
2023-04-10T03:13:17.546Z,7.7462
2023-04-10T03:14:20.499Z,7.9308
2023-04-10T03:15:23.447Z,7.7385
2023-04-10T03:16:26.532Z,7.8923
2023-04-10T03:17:29.420Z,8.1154
2023-04-10T03:18:32.321Z,7.8615
2023-04-10T03:19:35.280Z,8.2000
2023-04-10T03:20:38.236Z,8.6385
2023-04-10T03:21:41.204Z,7.3077
2023-04-10T03:22:44.135Z,7.9846
2023-04-10T03:23:47.086Z,7.5077
2023-04-10T03:24:50.038Z,7.7615
2023-04-10T03:25:52.989Z,8.1077
2023-04-10T03:26:55.951Z,6.9077
2023-04-10T03:27:58.995Z,7.4769
2023-04-10T03:29:01.994Z,9.3923
2023-04-10T03:30:04.870Z,7.9692
2023-04-10T03:31:07.845Z,8.5385
2023-04-10T03:32:10.794Z,8.3154
2023-04-10T03:33:13.785Z,8.6846
2023-04-10T03:34:16.777Z,8.9692
2023-04-10T03:35:19.744Z,8.8385
2023-04-10T03:36:22.623Z,8.6923
2023-04-10T03:37:25.558Z,8.9308
2023-04-10T03:38:28.507Z,8.4692
2023-04-10T03:39:31.502Z,8.2615
2023-04-10T03:40:34.429Z,9.3692
2023-04-10T03:41:37.366Z,9.2923
2023-04-10T03:42:40.324Z,8.2462
2023-04-10T03:43:43.275Z,7.8154
2023-04-10T03:44:46.225Z,8.0154
2023-04-10T03:45:49.173Z,8.5846
2023-04-10T03:46:52.239Z,7.7077
2023-04-10T03:47:55.106Z,7.9385
2023-04-10T03:48:58.032Z,8.2231
2023-04-10T03:50:00.993Z,8.3077
2023-04-10T03:51:03.967Z,8.3538
2023-04-10T03:52:06.886Z,7.9923
2023-04-10T03:53:09.866Z,8.1308
2023-04-10T03:54:13.041Z,7.8462
2023-04-10T03:55:15.731Z,8.3000
2023-04-10T03:56:18.728Z,9.1462
2023-04-10T03:57:21.665Z,7.9154
2023-04-10T03:58:24.619Z,8.0231
2023-04-10T03:59:37.966Z,9.4846
2023-04-10T04:00:30.501Z,8.5846
2023-04-10T04:01:33.550Z,9.6615
2023-04-10T04:02:36.475Z,8.4538
2023-04-10T04:03:39.471Z,9.1154
2023-04-10T04:04:42.496Z,8.8000
2023-04-10T04:05:45.286Z,8.6000
2023-04-10T04:06:48.221Z,9.3846
2023-04-10T04:07:51.164Z,8.3769
2023-04-10T04:08:54.118Z,8.0462
2023-04-10T04:09:57.103Z,8.0846
2023-04-10T04:11:00.033Z,9.0154
2023-04-10T04:12:02.987Z,8.8000
2023-04-10T04:13:05.948Z,9.4846
2023-04-10T04:14:08.941Z,9.8538
2023-04-10T04:15:11.860Z,8.9846
2023-04-10T04:16:14.824Z,9.5923
2023-04-10T04:17:17.781Z,8.1615
2023-04-10T04:18:20.717Z,8.3462
2023-04-10T04:19:23.683Z,8.2154
2023-04-10T04:20:26.670Z,8.2308
2023-04-10T04:21:29.596Z,9.4923
2023-04-10T04:22:32.529Z,9.2538
2023-04-10T04:23:35.517Z,10.1923
2023-04-10T04:24:38.470Z,10.9154
2023-04-10T04:25:41.409Z,11.2231
2023-04-10T04:26:44.367Z,11.2538
2023-04-10T04:27:47.318Z,11.4000
2023-04-10T04:28:50.301Z,11.1000
2023-04-10T04:29:53.224Z,11.4692
2023-04-10T04:30:56.189Z,11.0000
2023-04-10T04:31:59.199Z,11.9231
2023-04-10T04:33:02.162Z,11.3846
2023-04-10T04:34:05.062Z,10.8538
2023-04-10T04:35:08.000Z,10.2308
2023-04-10T04:36:10.984Z,10.8692
2023-04-10T04:37:13.893Z,10.2615
2023-04-10T04:38:16.897Z,10.4385
2023-04-10T04:39:19.808Z,10.2077
2023-04-10T04:40:22.763Z,11.1000
2023-04-10T04:41:25.721Z,10.4154
2023-04-10T04:42:28.671Z,10.7154
2023-04-10T04:43:31.719Z,10.7846
2023-04-10T04:44:34.597Z,10.7538
2023-04-10T04:45:37.553Z,11.8923
2023-04-10T04:46:41.954Z,10.8385
2023-04-10T04:47:43.472Z,10.8154
2023-04-10T04:48:46.424Z,10.4846
2023-04-10T04:49:49.396Z,10.6308
2023-04-10T04:50:52.568Z,10.0385
2023-04-10T04:51:55.275Z,10.6308
2023-04-10T04:52:58.245Z,9.1615
2023-04-10T04:54:01.178Z,9.5308
2023-04-10T04:55:04.157Z,8.4846
2023-04-10T04:56:07.146Z,8.9231
2023-04-10T04:57:10.079Z,10.0000
2023-04-10T04:58:13.011Z,9.9462
2023-04-10T04:59:15.974Z,9.4154
2023-04-10T05:00:18.919Z,9.5923
2023-04-10T05:01:21.919Z,8.9231
2023-04-10T05:02:24.978Z,9.4923
2023-04-10T05:03:28.014Z,9.6000
2023-04-10T05:04:30.798Z,9.6462
2023-04-10T05:05:33.703Z,9.7308
2023-04-10T05:06:36.770Z,9.9462
2023-04-10T05:07:39.668Z,9.7308
2023-04-10T05:08:42.545Z,9.8769
2023-04-10T05:09:45.511Z,9.9615
2023-04-10T05:10:48.464Z,10.0308
2023-04-10T05:11:51.417Z,11.0462
2023-04-10T05:12:54.493Z,10.1000
2023-04-10T05:13:57.325Z,9.9000
2023-04-10T05:15:04.246Z,9.8769
2023-04-10T05:16:04.834Z,9.5308
2023-04-10T05:17:06.177Z,9.7923
2023-04-10T05:18:09.233Z,9.1692
2023-04-10T05:19:12.092Z,9.4692
2023-04-10T05:20:15.081Z,9.5077
2023-04-10T05:21:18.001Z,9.1000
2023-04-10T05:22:20.979Z,10.0000
2023-04-10T05:23:24.039Z,9.5231
2023-04-10T05:24:26.866Z,9.6846
2023-04-10T05:25:29.817Z,10.4231
2023-04-10T05:26:32.817Z,10.0769
2023-04-10T05:27:35.750Z,9.8923
2023-04-10T05:28:38.743Z,10.2077
2023-04-10T05:29:41.670Z,9.6615
2023-04-10T05:30:44.658Z,9.9308
2023-04-10T05:31:47.562Z,9.6692
2023-04-10T05:32:50.551Z,9.4923
2023-04-10T05:33:53.471Z,8.6462
2023-04-10T05:34:56.446Z,9.9000
2023-04-10T05:35:59.455Z,9.6154
2023-04-10T05:37:02.340Z,10.3769
2023-04-10T05:38:05.309Z,9.5462
2023-04-10T05:39:08.257Z,10.6769
2023-04-10T05:40:11.237Z,11.1231
2023-04-10T05:41:14.316Z,8.9385
2023-04-10T05:42:17.346Z,8.7231
2023-04-10T05:43:20.080Z,9.0769
2023-04-10T05:44:23.019Z,9.5154
2023-04-10T05:45:25.983Z,9.5923
2023-04-10T05:46:29.038Z,9.6923
2023-04-10T05:47:31.928Z,9.4462
2023-04-10T05:48:35.028Z,9.6077
2023-04-10T05:49:37.849Z,10.2308
2023-04-10T05:50:40.758Z,10.3308
2023-04-10T05:51:43.765Z,11.1308
2023-04-10T05:52:46.831Z,10.1385
2023-04-10T05:53:49.632Z,9.2385
2023-04-10T05:54:52.596Z,9.3538
2023-04-10T05:55:55.542Z,9.3385
2023-04-10T05:56:58.496Z,9.9308
2023-04-10T05:58:01.502Z,8.7462
2023-04-10T05:59:04.420Z,10.2538
2023-04-10T06:00:07.385Z,11.0231
2023-04-10T06:01:10.356Z,10.0385
2023-04-10T06:02:13.413Z,10.0615
2023-04-10T06:03:16.360Z,9.8692
2023-04-10T06:04:19.368Z,10.9154
2023-04-10T06:05:22.270Z,10.0615
2023-04-10T06:06:25.099Z,9.7462
2023-04-10T06:07:28.073Z,10.7923
2023-04-10T06:08:31.043Z,9.6538
2023-04-10T06:09:33.970Z,11.2538
2023-04-10T06:10:36.929Z,10.2846
2023-04-10T06:11:39.864Z,8.9385
2023-04-10T06:12:42.823Z,9.8615
2023-04-10T06:13:45.806Z,10.7308
2023-04-10T06:14:48.737Z,9.8615
2023-04-10T06:15:51.713Z,9.2692
2023-04-10T06:16:54.659Z,9.0077
2023-04-10T06:17:57.667Z,9.7769
2023-04-10T06:19:00.556Z,9.4462
2023-04-10T06:20:03.497Z,9.4692
2023-04-10T06:21:06.474Z,8.9462
2023-04-10T06:22:09.490Z,10.3308
2023-04-10T06:23:12.356Z,10.2462
2023-04-10T06:24:15.312Z,10.4923
2023-04-10T06:25:18.296Z,9.7692
2023-04-10T06:26:21.226Z,12.0923
2023-04-10T06:27:24.191Z,11.6923
2023-04-10T06:28:27.124Z,10.4077
2023-04-10T06:29:30.135Z,10.5923
2023-04-10T06:30:33.048Z,10.3462
2023-04-10T06:31:36.085Z,10.1692
2023-04-10T06:32:38.971Z,9.7769
2023-04-10T06:33:41.896Z,10.6000
2023-04-10T06:34:44.857Z,9.9231
2023-04-10T06:35:47.833Z,9.4923
2023-04-10T06:36:50.752Z,11.9846
2023-04-10T06:37:53.728Z,10.5308
2023-04-10T06:38:56.709Z,8.9692
2023-04-10T06:39:59.635Z,10.1077
2023-04-10T06:41:02.587Z,9.9231
2023-04-10T06:42:05.650Z,11.6615
2023-04-10T06:43:08.794Z,9.4538
2023-04-10T06:44:11.522Z,10.8000
2023-04-10T06:45:14.403Z,10.0769
2023-04-10T06:46:17.353Z,9.5000
2023-04-10T06:47:20.307Z,9.7154
2023-04-10T06:48:23.288Z,9.2077
2023-04-10T06:49:26.250Z,9.3385
2023-04-10T06:50:29.883Z,9.5846
2023-04-10T06:51:32.075Z,10.0769
2023-04-10T06:52:35.032Z,10.5000
2023-04-10T06:53:37.994Z,11.4385
2023-04-10T06:54:40.931Z,10.9462
2023-04-10T06:55:43.914Z,10.2538
2023-04-10T06:56:46.860Z,9.6308
2023-04-10T06:57:49.816Z,10.0308
2023-04-10T06:58:52.874Z,11.2538
2023-04-10T06:59:55.716Z,10.4538
2023-04-10T07:00:58.747Z,9.5692
2023-04-10T07:02:01.656Z,10.0154
2023-04-10T07:03:04.682Z,9.3769
2023-04-10T07:04:07.647Z,9.9615
2023-04-10T07:05:10.517Z,9.9154
2023-04-10T07:06:13.477Z,10.6077
2023-04-10T07:07:16.366Z,10.6231
2023-04-10T07:08:19.398Z,10.0538
2023-04-10T07:09:22.288Z,9.8000
2023-04-10T07:10:25.291Z,10.3923
2023-04-10T07:11:28.175Z,10.4462
2023-04-10T07:12:31.172Z,10.3154
2023-04-10T07:13:34.181Z,9.7923
2023-04-10T07:14:37.044Z,9.5769
2023-04-10T07:15:39.980Z,10.4000
2023-04-10T07:16:42.969Z,9.8231
2023-04-10T07:17:45.961Z,9.2692
2023-04-10T07:18:48.817Z,8.5462
2023-04-10T07:19:51.758Z,8.4538
2023-04-10T07:20:54.711Z,9.4692
2023-04-10T07:21:57.670Z,8.5846
2023-04-10T07:23:00.793Z,8.3923
2023-04-10T07:24:03.554Z,8.1538
2023-04-10T07:25:06.517Z,7.8538
2023-04-10T07:26:09.497Z,9.6077
2023-04-10T07:27:12.410Z,8.2692
2023-04-10T07:28:15.357Z,7.0308
2023-04-10T07:29:18.300Z,7.8846
2023-04-10T07:30:21.238Z,7.6692
2023-04-10T07:31:24.289Z,7.7538
2023-04-10T07:32:27.343Z,8.6077
2023-04-10T07:33:30.087Z,7.4308
2023-04-10T07:34:33.009Z,8.9462
2023-04-10T07:35:36.089Z,8.0923
2023-04-10T07:36:38.975Z,7.0692
2023-04-10T07:37:41.925Z,7.5077
2023-04-10T07:38:44.880Z,7.6231
2023-04-10T07:39:47.832Z,7.8692
2023-04-10T07:40:50.819Z,8.2846
2023-04-10T07:41:53.713Z,6.8692
2023-04-10T07:42:56.646Z,6.9077
2023-04-10T07:43:59.785Z,6.9538
2023-04-10T07:45:02.551Z,7.7615
2023-04-10T07:46:05.519Z,6.7615
2023-04-10T07:47:08.431Z,6.8846
2023-04-10T07:48:11.380Z,6.7231
2023-04-10T07:49:14.567Z,6.3462
2023-04-10T07:50:17.294Z,6.3923
2023-04-10T07:51:20.218Z,6.5308
2023-04-10T07:52:23.198Z,6.8000
2023-04-10T07:53:26.119Z,6.8000
2023-04-10T07:54:29.073Z,6.7769
2023-04-10T07:55:32.004Z,6.4385
2023-04-10T07:56:35.014Z,6.5769
2023-04-10T07:57:37.937Z,6.5000
2023-04-10T07:58:40.856Z,5.7538
2023-04-10T07:59:43.807Z,6.8385
2023-04-10T08:00:46.797Z,6.3000
2023-04-10T08:01:49.823Z,6.2538
2023-04-10T08:02:52.789Z,5.9077
2023-04-10T08:03:55.751Z,5.8538
2023-04-10T08:04:58.766Z,7.7692
2023-04-10T08:06:01.508Z,6.2923
2023-04-10T08:07:04.505Z,6.0154
2023-04-10T08:08:07.389Z,6.1846
2023-04-10T08:09:10.392Z,5.9538
2023-04-10T08:10:13.298Z,5.9615
2023-04-10T08:11:16.252Z,6.0385
2023-04-10T08:12:19.186Z,6.2000
2023-04-10T08:13:22.130Z,6.5154
2023-04-10T08:14:25.091Z,6.4615
2023-04-10T08:15:28.015Z,5.9385
2023-04-10T08:16:31.030Z,5.5538
2023-04-10T08:17:33.936Z,6.9154
2023-04-10T08:18:36.875Z,6.1462
2023-04-10T08:19:39.816Z,6.2615
2023-04-10T08:20:42.767Z,6.9000
2023-04-10T08:21:45.732Z,6.9846
2023-04-10T08:22:48.672Z,6.0154
2023-04-10T08:23:51.627Z,6.3846
2023-04-10T08:24:54.564Z,6.1231
2023-04-10T08:25:57.623Z,6.7462
2023-04-10T08:27:00.461Z,6.4385
2023-04-10T08:28:03.514Z,6.6462
2023-04-10T08:29:06.392Z,6.0538
2023-04-10T08:30:09.329Z,6.1308
2023-04-10T08:31:12.376Z,6.0923
2023-04-10T08:32:15.238Z,7.1538
2023-04-10T08:33:18.188Z,6.2615
2023-04-10T08:34:21.129Z,6.2923
2023-04-10T08:35:24.141Z,6.8462
2023-04-10T08:36:27.119Z,6.3846
2023-04-10T08:37:29.973Z,6.3385
2023-04-10T08:38:32.920Z,5.6846
2023-04-10T08:39:35.854Z,6.1923
2023-04-10T08:40:38.842Z,6.0231
2023-04-10T08:41:41.750Z,6.1308
2023-04-10T08:42:44.700Z,6.2462
2023-04-10T08:43:47.643Z,6.0615
2023-04-10T08:44:50.597Z,6.5462
2023-04-10T08:45:53.576Z,6.5308
2023-04-10T08:46:56.545Z,6.4000
2023-04-10T08:47:59.449Z,6.7615
2023-04-10T08:49:02.475Z,6.4769
2023-04-10T08:50:05.318Z,6.0308
2023-04-10T08:51:10.790Z,6.4692
2023-04-10T08:52:11.214Z,6.6846
2023-04-10T08:53:14.184Z,6.7538
2023-04-10T08:54:17.150Z,6.1154
2023-04-10T08:55:20.111Z,6.0769
2023-04-10T08:56:23.011Z,5.9308
2023-04-10T08:57:25.957Z,6.4231
2023-04-10T08:58:28.895Z,6.5308
2023-04-10T08:59:31.853Z,6.1923
2023-04-10T09:00:35.100Z,6.4538
2023-04-10T09:01:37.851Z,5.9308
2023-04-10T09:02:42.571Z,6.5385
2023-04-10T09:03:43.827Z,6.3462
2023-04-10T09:04:46.726Z,6.3231
2023-04-10T09:05:49.596Z,6.1846
2023-04-10T09:06:52.574Z,6.3077
2023-04-10T09:07:55.491Z,6.4231
2023-04-10T09:08:58.584Z,7.0231
2023-04-10T09:10:01.453Z,6.7615
2023-04-10T09:11:04.331Z,6.4769
2023-04-10T09:12:07.300Z,6.3000
2023-04-10T09:13:10.440Z,6.6308
2023-04-10T09:14:13.191Z,6.5154
2023-04-10T09:15:16.202Z,6.6615
2023-04-10T09:16:19.157Z,7.0538
2023-04-10T09:17:22.101Z,7.1923
2023-04-10T09:18:25.036Z,6.7231
2023-04-10T09:19:27.966Z,6.4846
2023-04-10T09:20:30.945Z,6.2692
2023-04-10T09:21:33.886Z,7.0000
2023-04-10T09:22:36.862Z,6.2615
2023-04-10T09:23:39.843Z,7.0000
2023-04-10T09:24:42.746Z,6.6769
2023-04-10T09:25:45.692Z,6.3769
2023-04-10T09:26:48.717Z,6.5692
2023-04-10T09:27:51.615Z,6.6462
2023-04-10T09:28:54.626Z,6.7308
2023-04-10T09:29:57.502Z,6.2846
2023-04-10T09:31:00.512Z,6.2692
2023-04-10T09:32:03.394Z,6.5462
2023-04-10T09:33:06.631Z,6.3154
2023-04-10T09:34:09.324Z,5.5154
2023-04-10T09:35:12.265Z,6.1077
2023-04-10T09:36:15.239Z,5.8692
2023-04-10T09:37:18.176Z,5.5769
2023-04-10T09:38:21.130Z,6.1462
2023-04-10T09:39:24.166Z,6.2615
2023-04-10T09:40:27.053Z,5.4154
2023-04-10T09:41:29.976Z,5.8154
2023-04-10T09:42:32.923Z,5.2692
2023-04-10T09:43:35.937Z,6.1308
2023-04-10T09:44:38.861Z,5.8231
2023-04-10T09:45:41.802Z,6.1154
2023-04-10T09:46:44.800Z,6.3538
2023-04-10T09:47:47.747Z,6.1692
2023-04-10T09:48:50.667Z,6.0231
2023-04-10T09:49:53.654Z,5.7231
2023-04-10T09:50:56.573Z,5.6308
2023-04-10T09:51:59.518Z,6.0538
2023-04-10T09:53:02.577Z,5.6154
2023-04-10T09:54:05.445Z,5.9692
2023-04-10T09:55:08.394Z,5.7538
2023-04-10T09:56:11.420Z,5.3231
2023-04-10T09:57:14.284Z,5.7308
2023-04-10T09:58:17.240Z,5.4538
2023-04-10T09:59:20.197Z,5.9462
2023-04-10T10:00:23.220Z,5.7231
2023-04-10T10:01:26.077Z,5.5077
2023-04-10T10:02:29.179Z,5.3154
2023-04-10T10:03:32.061Z,5.3846
2023-04-10T10:04:34.963Z,5.4615
2023-04-10T10:05:37.879Z,6.0308
2023-04-10T10:06:40.868Z,5.5308
2023-04-10T10:07:43.866Z,5.4385
2023-04-10T10:08:46.948Z,5.4923
2023-04-10T10:09:49.666Z,5.3769
2023-04-10T10:10:52.610Z,5.8538
2023-04-10T10:11:55.562Z,5.6154
2023-04-10T10:12:58.528Z,5.5000
2023-04-10T10:14:01.435Z,5.6538
2023-04-10T10:15:04.434Z,6.9615
2023-04-10T10:16:07.384Z,5.5077
2023-04-10T10:17:10.299Z,5.3692
2023-04-10T10:18:13.247Z,5.8231
2023-04-10T10:19:16.218Z,5.8154
2023-04-10T10:20:19.145Z,6.0000
2023-04-10T10:21:22.097Z,6.2923
2023-04-10T10:22:25.029Z,5.9923
2023-04-10T10:23:28.065Z,5.8923
2023-04-10T10:24:31.100Z,6.3000
2023-04-10T10:25:33.907Z,5.8000
2023-04-10T10:26:37.000Z,5.8308
2023-04-10T10:27:39.821Z,5.9769
2023-04-10T10:28:42.697Z,5.9538
2023-04-10T10:29:45.684Z,5.4462
2023-04-10T10:30:48.594Z,6.5231
2023-04-10T10:31:51.679Z,6.1923
2023-04-10T10:32:54.511Z,5.6615
2023-04-10T10:33:57.466Z,5.3385
2023-04-10T10:35:00.399Z,5.6154
2023-04-10T10:36:03.469Z,5.4000
2023-04-10T10:37:06.496Z,6.4923
2023-04-10T10:38:09.245Z,5.8231
2023-04-10T10:39:12.183Z,5.5692
2023-04-10T10:40:15.146Z,5.7692
2023-04-10T10:41:18.082Z,5.3769
2023-04-10T10:42:21.029Z,5.8462
2023-04-10T10:43:23.991Z,5.2769
2023-04-10T10:44:26.943Z,5.6000
2023-04-10T10:45:29.950Z,5.7846
2023-04-10T10:46:32.819Z,5.8692
2023-04-10T10:47:35.772Z,6.4231
2023-04-10T10:48:38.840Z,6.1385
2023-04-10T10:49:41.656Z,5.8615
2023-04-10T10:50:44.630Z,5.7923
2023-04-10T10:51:47.543Z,5.4077
2023-04-10T10:52:50.514Z,5.7154
2023-04-10T10:53:53.514Z,5.8615
2023-04-10T10:54:59.686Z,5.3308
2023-04-10T10:55:59.444Z,5.5077
2023-04-10T10:57:02.296Z,5.4769
2023-04-10T10:58:05.245Z,5.4846
2023-04-10T10:59:08.192Z,5.9385
2023-04-10T11:00:11.157Z,5.8846
2023-04-10T11:01:14.176Z,5.9769
2023-04-10T11:02:17.202Z,5.8846
2023-04-10T11:03:20.118Z,6.6308
2023-04-10T11:04:22.947Z,6.1385
2023-04-10T11:05:25.885Z,5.4308
2023-04-10T11:06:28.870Z,5.0923
2023-04-10T11:07:31.790Z,5.5385
2023-04-10T11:08:34.739Z,5.9000
2023-04-10T11:09:37.864Z,5.3923
2023-04-10T11:10:40.668Z,5.7154
2023-04-10T11:11:43.668Z,6.4538
2023-04-10T11:12:46.553Z,6.1385
2023-04-10T11:13:49.490Z,5.6538
2023-04-10T11:14:52.470Z,5.1615
2023-04-10T11:15:55.379Z,5.6308
2023-04-10T11:16:58.522Z,5.2692
2023-04-10T11:18:01.298Z,5.9692
2023-04-10T11:19:14.050Z,5.4769
2023-04-10T11:20:07.270Z,5.3154
2023-04-10T11:21:10.166Z,5.1462
2023-04-10T11:22:13.276Z,5.3769
2023-04-10T11:23:16.042Z,5.2923
2023-04-10T11:24:19.155Z,6.0077
2023-04-10T11:25:21.957Z,5.3769
2023-04-10T11:26:24.895Z,5.2385
2023-04-10T11:27:27.871Z,5.0462
2023-04-10T11:28:30.820Z,5.4769
2023-04-10T11:29:33.762Z,5.6000
2023-04-10T11:30:36.986Z,5.4000
2023-04-10T11:31:39.969Z,5.2000
2023-04-10T11:32:42.646Z,5.5923
2023-04-10T11:33:45.588Z,5.4231
2023-04-10T11:34:48.547Z,5.2846
2023-04-10T11:35:51.560Z,5.0615
2023-04-10T11:36:54.435Z,5.4308
2023-04-10T11:37:57.409Z,5.1769
2023-04-10T11:39:00.444Z,4.8846
2023-04-10T11:40:03.306Z,4.9615
2023-04-10T11:41:06.215Z,5.4385
2023-04-10T11:42:09.168Z,4.9154
2023-04-10T11:43:12.202Z,4.7692
2023-04-10T11:44:15.168Z,4.9846
2023-04-10T11:45:18.089Z,5.2692
2023-04-10T11:46:21.149Z,4.9615
2023-04-10T11:47:24.008Z,5.0385
2023-04-10T11:48:26.924Z,5.2231
2023-04-10T11:49:29.945Z,4.6538
2023-04-10T11:50:32.832Z,4.6615
2023-04-10T11:51:35.778Z,4.6769
2023-04-10T11:52:38.732Z,4.4615
2023-04-10T11:53:41.722Z,4.4385
2023-04-10T11:54:44.618Z,5.2692
2023-04-10T11:55:47.556Z,3.8231
2023-04-10T11:56:50.515Z,4.3692
2023-04-10T11:57:53.460Z,4.4308
2023-04-10T11:58:56.763Z,4.8846
2023-04-10T11:59:59.369Z,4.7077
2023-04-10T12:01:02.408Z,5.6308
2023-04-10T12:02:05.374Z,4.5462
2023-04-10T12:03:08.404Z,3.9846
2023-04-10T12:04:11.287Z,3.9385
2023-04-10T12:05:14.145Z,4.4769
2023-04-10T12:06:17.068Z,4.1769
2023-04-10T12:07:20.078Z,3.8769
2023-04-10T12:08:23.539Z,3.9000
2023-04-10T12:09:25.914Z,4.2538
2023-04-10T12:10:28.866Z,3.7923
2023-04-10T12:11:31.863Z,3.7462
2023-04-10T12:12:34.766Z,4.8846
2023-04-10T12:13:37.717Z,4.0538
2023-04-10T12:14:40.683Z,3.5385
2023-04-10T12:15:43.635Z,4.0462
2023-04-10T12:16:46.560Z,3.8846
2023-04-10T12:17:49.576Z,3.7846
2023-04-10T12:18:53.202Z,3.3000
2023-04-10T12:19:55.445Z,2.8846
2023-04-10T12:20:58.345Z,3.5077
2023-04-10T12:22:01.324Z,3.1154
2023-04-10T12:23:04.275Z,3.5077
2023-04-10T12:24:07.219Z,3.5538
2023-04-10T12:25:10.151Z,3.5923
2023-04-10T12:26:13.144Z,3.3538
2023-04-10T12:27:16.101Z,3.1846
2023-04-10T12:28:19.009Z,3.3154
2023-04-10T12:29:22.167Z,3.0231
2023-04-10T12:30:24.915Z,3.2692
2023-04-10T12:31:27.915Z,3.1385
2023-04-10T12:32:30.855Z,2.8692
2023-04-10T12:33:33.763Z,3.0231
2023-04-10T12:34:36.731Z,3.3154
2023-04-10T12:35:39.676Z,3.1308
2023-04-10T12:36:42.685Z,2.8231
2023-04-10T12:37:45.590Z,2.9846
2023-04-10T12:38:48.545Z,3.2077
2023-04-10T12:39:51.499Z,3.4615
2023-04-10T12:40:54.420Z,3.0000
2023-04-10T12:41:57.365Z,2.5615
2023-04-10T12:43:00.322Z,2.2769
2023-04-10T12:44:03.326Z,2.8538
2023-04-10T12:45:06.224Z,2.6077
2023-04-10T12:46:09.328Z,2.9154
2023-04-10T12:47:12.127Z,2.5923
2023-04-10T12:48:15.058Z,2.5231
2023-04-10T12:49:18.027Z,2.7154
2023-04-10T12:50:20.995Z,2.7154
2023-04-10T12:51:23.950Z,2.3923
2023-04-10T12:52:26.973Z,3.9846
2023-04-10T12:53:29.952Z,2.4154
2023-04-10T12:54:32.764Z,3.8615
2023-04-10T12:55:35.738Z,2.5000
2023-04-10T12:56:38.666Z,3.5692
2023-04-10T12:57:41.613Z,2.7615
2023-04-10T12:58:44.555Z,2.7000
2023-04-10T12:59:47.511Z,2.8385
2023-04-10T13:00:50.461Z,2.5385
2023-04-10T13:01:53.712Z,2.4462